createdAt,value
2022-10-05T00:00:00.646Z,3.80
2022-10-05T00:10:14.784Z,3.83
2022-10-05T00:20:23.740Z,3.53
2022-10-05T00:30:31.916Z,3.90
2022-10-05T00:40:46.571Z,4.22
2022-10-05T00:51:09.320Z,3.78
2022-10-05T01:01:16.104Z,3.85
2022-10-05T01:11:26.556Z,4.45
2022-10-05T01:21:36.837Z,3.72
2022-10-05T01:31:49.515Z,3.80
2022-10-05T01:42:00.885Z,3.47
2022-10-05T01:52:14.871Z,3.17
2022-10-05T02:02:19.780Z,3.20
2022-10-05T02:12:28.213Z,3.28
2022-10-05T02:22:35.868Z,3.72
2022-10-05T02:32:45.189Z,3.40
2022-10-05T02:42:57.426Z,4.03
2022-10-05T02:53:12.439Z,4.28
2022-10-05T03:03:24.348Z,4.38
2022-10-05T03:13:35.360Z,5.10
2022-10-05T03:23:50.750Z,4.68
2022-10-05T03:34:00.540Z,4.75
2022-10-05T03:44:18.572Z,4.53
2022-10-05T03:54:29.947Z,4.78
2022-10-05T04:04:35.899Z,4.50
2022-10-05T04:14:45.719Z,4.60
2022-10-05T04:24:53.035Z,4.57
2022-10-05T04:35:09.202Z,4.47
2022-10-05T04:45:20.892Z,4.60
2022-10-05T04:55:32.678Z,4.93
2022-10-05T05:06:15.443Z,4.43
2022-10-05T05:16:26.247Z,4.72
2022-10-05T05:26:38.859Z,4.70
2022-10-05T05:36:53.969Z,5.35
2022-10-05T05:47:04.573Z,5.63
2022-10-05T05:57:14.095Z,5.70
2022-10-05T06:07:20.822Z,6.53
2022-10-05T06:17:29.989Z,7.03
2022-10-05T06:27:37.740Z,6.23
2022-10-05T06:38:08.752Z,6.50
2022-10-05T06:48:20.971Z,6.60
2022-10-05T06:58:40.656Z,6.85
2022-10-05T07:09:14.187Z,6.32
2022-10-05T07:19:32.183Z,6.78
2022-10-05T07:29:44.069Z,7.72
2022-10-05T07:40:01.222Z,7.13
2022-10-05T07:50:17.523Z,6.97
2022-10-05T08:00:23.789Z,6.60
2022-10-05T08:10:33.897Z,6.43
2022-10-05T08:20:43.379Z,6.22
2022-10-05T08:31:09.001Z,6.03
2022-10-05T08:41:43.597Z,5.53
2022-10-05T08:52:07.711Z,5.90
2022-10-05T09:02:22.943Z,5.00
2022-10-05T09:12:47.642Z,5.05
2022-10-05T09:23:09.861Z,4.25
2022-10-05T09:33:53.959Z,4.75
2022-10-05T09:44:28.096Z,3.65
2022-10-05T09:55:06.539Z,3.60
2022-10-05T10:05:32.712Z,3.08
2022-10-05T10:16:09.670Z,3.40
2022-10-05T10:27:00.920Z,2.90
2022-10-05T10:37:34.386Z,2.47
2022-10-05T10:47:48.108Z,2.55
2022-10-05T10:58:16.035Z,2.72
2022-10-05T11:08:55.070Z,2.85
2022-10-05T11:19:40.561Z,2.67
2022-10-05T11:30:13.477Z,2.90
2022-10-05T11:40:34.185Z,2.80
2022-10-05T11:50:43.307Z,2.40
2022-10-05T12:00:55.193Z,3.00
2022-10-05T12:11:09.636Z,3.72
2022-10-05T12:21:18.471Z,3.00
2022-10-05T12:31:30.526Z,3.17
2022-10-05T12:41:37.126Z,2.92
2022-10-05T12:51:46.003Z,3.20
2022-10-05T13:01:59.747Z,3.30
2022-10-05T13:12:10.253Z,2.80
2022-10-05T13:22:27.067Z,2.22
2022-10-05T13:32:36.510Z,2.50
2022-10-05T13:42:48.184Z,2.60
2022-10-05T13:52:57.475Z,2.58
2022-10-05T14:13:20.393Z,2.65
2022-10-05T14:23:27.196Z,2.20
2022-10-05T14:33:32.745Z,2.08
2022-10-05T14:43:35.778Z,3.03
2022-10-05T14:53:41.718Z,3.10
2022-10-05T15:03:49.682Z,2.50
2022-10-05T15:13:54.473Z,2.70
2022-10-05T15:24:01.147Z,2.80
2022-10-05T15:34:11.376Z,1.92
2022-10-05T15:44:22.895Z,1.98
2022-10-05T15:54:43.974Z,2.28
2022-10-05T16:04:53.132Z,2.40
2022-10-05T16:15:06.492Z,5.88
2022-10-05T16:25:18.724Z,2.50
2022-10-05T16:35:33.189Z,2.60
2022-10-05T16:45:52.941Z,2.97
2022-10-05T16:56:02.778Z,2.95
2022-10-05T17:06:38.109Z,2.85
2022-10-05T17:16:54.419Z,2.50
2022-10-05T17:27:03.438Z,3.42
2022-10-05T17:37:36.144Z,3.07
2022-10-05T17:47:57.771Z,2.50
2022-10-05T17:58:41.556Z,2.55
2022-10-05T18:08:44.574Z,2.03
2022-10-05T18:18:59.133Z,2.10
2022-10-05T18:29:37.013Z,2.20
2022-10-05T18:39:57.248Z,2.08
2022-10-05T18:50:14.783Z,2.00
2022-10-05T19:00:21.281Z,1.70
2022-10-05T19:10:29.340Z,2.03
2022-10-05T19:20:37.820Z,1.40
2022-10-05T19:30:54.838Z,1.63
2022-10-05T19:41:06.780Z,1.70
2022-10-05T19:51:15.912Z,1.60
2022-10-05T20:01:30.644Z,1.70
2022-10-05T20:11:34.947Z,1.33
2022-10-05T20:21:47.853Z,1.58
2022-10-05T20:31:50.661Z,1.70
2022-10-05T20:41:54.809Z,1.85
2022-10-05T20:51:57.893Z,1.60
2022-10-05T21:02:02.363Z,1.02
2022-10-05T21:12:05.152Z,1.10
2022-10-05T21:22:10.356Z,0.90
2022-10-05T21:32:13.077Z,1.00
2022-10-05T21:42:17.081Z,0.50
2022-10-05T21:52:19.784Z,0.60
2022-10-05T22:02:23.935Z,0.50
2022-10-05T22:12:26.722Z,0.45
2022-10-05T22:22:30.989Z,0.30
2022-10-05T22:32:33.666Z,0.30
2022-10-05T22:42:38.820Z,0.40
2022-10-05T22:52:42.336Z,0.40
2022-10-05T23:02:46.424Z,0.60
2022-10-05T23:13:00.372Z,0.60
2022-10-05T23:23:04.925Z,0.98
2022-10-05T23:33:07.623Z,0.75
2022-10-05T23:43:11.627Z,0.73
2022-10-05T23:53:14.676Z,0.93
